createdAt,value
2023-05-24T00:02:20.584Z,20.42
2023-05-24T00:04:49.444Z,20.85
2023-05-24T00:07:16.616Z,24.23
2023-05-24T00:09:43.533Z,19.25
2023-05-24T00:12:10.518Z,13.43
2023-05-24T00:14:37.329Z,14.32
2023-05-24T00:17:04.374Z,13.65
2023-05-24T00:19:31.263Z,23.10
2023-05-24T00:21:58.609Z,17.45
2023-05-24T00:24:25.620Z,17.25
2023-05-24T00:26:52.471Z,14.77
2023-05-24T00:29:19.301Z,16.58
2023-05-24T00:31:52.348Z,17.35
2023-05-24T00:34:19.364Z,19.33
2023-05-24T00:36:46.410Z,18.23
2023-05-24T00:39:13.175Z,17.63
2023-05-24T00:41:40.046Z,18.05
2023-05-24T00:44:06.883Z,16.60
2023-05-24T00:46:35.160Z,12.50
2023-05-24T00:49:02.382Z,20.52
2023-05-24T00:51:30.248Z,13.60
2023-05-24T00:53:57.322Z,15.77
2023-05-24T00:56:24.212Z,19.52
2023-05-24T00:58:54.756Z,19.30
2023-05-24T01:01:25.861Z,17.00
2023-05-24T01:03:54.244Z,21.42
2023-05-24T01:06:21.786Z,16.25
2023-05-24T01:09:24.664Z,17.95
2023-05-24T01:12:00.589Z,19.13
2023-05-24T01:14:38.837Z,19.25
2023-05-24T01:17:24.102Z,17.75
2023-05-24T01:20:06.724Z,17.60
2023-05-24T01:23:02.519Z,17.25
2023-05-24T01:26:09.743Z,17.23
2023-05-24T01:28:39.129Z,21.85
2023-05-24T01:31:07.370Z,21.40
2023-05-24T01:33:34.329Z,21.67
2023-05-24T01:36:01.155Z,21.05
2023-05-24T01:38:27.954Z,22.27
2023-05-24T01:41:05.672Z,22.30
2023-05-24T01:43:42.749Z,26.27
2023-05-24T01:46:37.845Z,24.05
2023-05-24T01:49:25.085Z,18.92
2023-05-24T01:51:57.997Z,16.17
2023-05-24T01:54:28.327Z,24.17
2023-05-24T01:56:57.564Z,21.95
2023-05-24T01:59:26.793Z,19.25
2023-05-24T02:01:53.998Z,38.35
2023-05-24T02:04:20.904Z,18.38
2023-05-24T02:06:47.674Z,20.80
2023-05-24T02:09:14.549Z,18.55
2023-05-24T02:11:41.391Z,18.98
2023-05-24T02:14:08.225Z,19.00
2023-05-24T02:16:42.427Z,17.65
2023-05-24T02:19:09.786Z,30.60
2023-05-24T02:21:36.619Z,19.52
2023-05-24T02:24:03.534Z,18.23
2023-05-24T02:26:30.736Z,22.85
2023-05-24T02:28:57.498Z,24.40
2023-05-24T02:31:28.568Z,17.50
2023-05-24T02:33:59.184Z,19.33
2023-05-24T02:36:26.094Z,16.60
2023-05-24T02:38:53.108Z,30.10
2023-05-24T02:41:20.345Z,17.02
2023-05-24T02:43:48.313Z,20.85
2023-05-24T02:46:15.644Z,12.82
2023-05-24T02:48:45.396Z,13.38
2023-05-24T02:51:12.203Z,19.33
2023-05-24T02:53:39.063Z,20.45
2023-05-24T02:56:07.486Z,14.45
2023-05-24T02:58:34.356Z,28.25
2023-05-24T03:01:01.826Z,17.58
2023-05-24T03:03:28.860Z,19.83
2023-05-24T03:05:55.708Z,14.07
2023-05-24T03:08:22.620Z,22.20
2023-05-24T03:10:49.404Z,15.82
2023-05-24T03:13:19.012Z,22.83
2023-05-24T03:15:46.669Z,17.17
2023-05-24T03:18:13.508Z,11.55
2023-05-24T03:20:40.861Z,15.15
2023-05-24T03:23:09.735Z,19.00
2023-05-24T03:25:36.534Z,15.48
2023-05-24T03:28:03.511Z,16.88
2023-05-24T03:30:30.309Z,16.88
2023-05-24T03:32:57.214Z,22.83
2023-05-24T03:35:24.188Z,15.65
2023-05-24T03:37:51.051Z,24.50
2023-05-24T03:40:17.821Z,17.65
2023-05-24T03:42:44.731Z,20.92
2023-05-24T03:45:11.673Z,17.60
2023-05-24T03:47:38.562Z,27.30
2023-05-24T03:50:05.871Z,19.40
2023-05-24T03:52:32.719Z,25.15
2023-05-24T03:54:59.570Z,24.73
2023-05-24T03:57:26.388Z,21.95
2023-05-24T03:59:53.187Z,22.35
2023-05-24T04:02:20.100Z,18.40
2023-05-24T04:04:47.062Z,21.23
2023-05-24T04:07:15.470Z,22.65
2023-05-24T04:09:43.183Z,20.67
2023-05-24T04:12:10.020Z,19.10
2023-05-24T04:14:36.854Z,17.92
2023-05-24T04:17:05.816Z,17.52
2023-05-24T04:19:32.734Z,16.98
2023-05-24T04:21:59.618Z,22.80
2023-05-24T04:24:26.386Z,18.33
2023-05-24T04:26:53.349Z,18.65
2023-05-24T04:29:20.245Z,23.80
2023-05-24T04:31:49.074Z,19.60
2023-05-24T04:34:16.129Z,24.80
2023-05-24T04:36:42.961Z,21.30
2023-05-24T04:39:10.009Z,23.73
2023-05-24T04:41:37.311Z,29.75
2023-05-24T04:44:04.347Z,26.52
2023-05-24T04:46:31.595Z,25.85
2023-05-24T04:48:58.561Z,25.85
2023-05-24T04:51:25.618Z,30.20
2023-05-24T04:53:52.812Z,29.67
2023-05-24T04:56:20.025Z,30.00
2023-05-24T04:58:47.684Z,25.67
2023-05-24T05:01:14.813Z,23.38
2023-05-24T05:03:41.995Z,33.97
2023-05-24T05:06:08.870Z,36.72
2023-05-24T05:08:35.713Z,35.65
2023-05-24T05:11:02.948Z,23.98
2023-05-24T05:13:29.816Z,28.80
2023-05-24T05:15:56.618Z,28.23
2023-05-24T05:18:23.477Z,41.60
2023-05-24T05:20:50.539Z,28.85
2023-05-24T05:23:18.674Z,32.47
2023-05-24T05:25:45.743Z,32.33
2023-05-24T05:28:12.604Z,28.05
2023-05-24T05:30:39.425Z,26.67
2023-05-24T05:33:06.418Z,32.55
2023-05-24T05:35:33.375Z,33.22
2023-05-24T05:38:00.207Z,29.67
2023-05-24T05:40:27.004Z,39.38
2023-05-24T05:42:53.786Z,23.52
2023-05-24T05:45:20.878Z,31.88
2023-05-24T05:47:47.736Z,25.35
2023-05-24T05:50:14.525Z,32.53
2023-05-24T05:52:41.404Z,28.73
2023-05-24T05:55:09.353Z,25.42
2023-05-24T05:57:36.183Z,26.48
2023-05-24T06:00:03.939Z,31.33
2023-05-24T06:02:31.114Z,22.65
2023-05-24T06:04:58.266Z,26.42
2023-05-24T06:07:25.178Z,30.15
2023-05-24T06:09:51.956Z,30.17
2023-05-24T06:12:18.816Z,20.52
2023-05-24T06:14:48.282Z,31.02
2023-05-24T06:17:15.185Z,29.05
2023-05-24T06:19:45.667Z,22.17
2023-05-24T06:22:12.705Z,21.60
2023-05-24T06:24:39.940Z,21.88
2023-05-24T06:27:06.809Z,19.75
2023-05-24T06:29:33.687Z,22.45
2023-05-24T06:32:00.652Z,19.60
2023-05-24T06:34:28.271Z,17.08
2023-05-24T06:36:55.156Z,18.30
2023-05-24T06:39:22.056Z,23.40
2023-05-24T06:41:51.458Z,12.57
2023-05-24T06:44:18.520Z,22.98
2023-05-24T06:46:45.515Z,14.90
2023-05-24T06:49:12.736Z,22.83
2023-05-24T06:51:39.830Z,20.52
2023-05-24T06:54:06.987Z,19.50
2023-05-24T06:56:33.951Z,17.65
2023-05-24T06:59:01.213Z,21.80
2023-05-24T07:01:29.378Z,11.60
2023-05-24T07:03:56.354Z,16.17
2023-05-24T07:06:23.300Z,20.65
2023-05-24T07:08:50.101Z,18.10
2023-05-24T07:11:17.418Z,16.27
2023-05-24T07:13:44.443Z,14.07
2023-05-24T07:16:12.066Z,25.15
2023-05-24T07:18:41.784Z,21.45
2023-05-24T07:21:08.981Z,15.07
2023-05-24T07:23:37.088Z,19.48
2023-05-24T07:26:05.085Z,17.08
2023-05-24T07:28:32.318Z,20.33
2023-05-24T07:30:59.131Z,16.50
2023-05-24T07:33:26.089Z,22.98
2023-05-24T07:35:53.854Z,15.93
2023-05-24T07:38:21.252Z,15.10
2023-05-24T07:40:48.296Z,19.60
2023-05-24T07:43:15.449Z,16.67
2023-05-24T07:45:42.563Z,17.27
2023-05-24T07:48:09.541Z,20.70
2023-05-24T07:50:36.392Z,11.60
2023-05-24T07:53:03.265Z,12.30
2023-05-24T07:55:30.121Z,11.25
2023-05-24T07:57:57.060Z,19.80
2023-05-24T08:00:24.070Z,15.75
2023-05-24T08:02:51.031Z,11.80
2023-05-24T08:05:24.003Z,12.07
2023-05-24T08:07:50.874Z,13.45
2023-05-24T08:10:18.736Z,11.60
2023-05-24T08:12:45.815Z,15.43
2023-05-24T08:15:12.706Z,16.15
2023-05-24T08:17:40.002Z,11.88
2023-05-24T08:20:09.996Z,16.80
2023-05-24T08:22:37.778Z,14.50
2023-05-24T08:25:06.251Z,14.98
2023-05-24T08:27:33.219Z,14.77
2023-05-24T08:30:00.064Z,16.98
2023-05-24T08:32:27.259Z,12.65
2023-05-24T08:35:03.617Z,12.95
2023-05-24T08:37:37.894Z,9.68
2023-05-24T08:40:05.336Z,15.38
2023-05-24T08:42:32.342Z,13.25
2023-05-24T08:45:03.936Z,11.20
2023-05-24T08:47:32.608Z,11.35
2023-05-24T08:50:00.277Z,15.38
2023-05-24T08:52:28.589Z,12.70
2023-05-24T08:54:56.478Z,18.75
2023-05-24T08:57:23.957Z,9.45
2023-05-24T08:59:51.039Z,8.35
2023-05-24T09:02:18.337Z,14.80
2023-05-24T09:04:48.740Z,12.82
2023-05-24T09:07:18.407Z,7.35
2023-05-24T09:10:05.056Z,13.68
2023-05-24T09:12:38.711Z,10.45
2023-05-24T09:15:08.002Z,10.13
2023-05-24T09:17:36.814Z,9.45
2023-05-24T09:20:07.234Z,13.18
2023-05-24T09:22:40.323Z,8.57
2023-05-24T09:25:09.896Z,16.65
2023-05-24T09:27:38.513Z,12.27
2023-05-24T09:30:10.311Z,13.77
2023-05-24T09:32:38.089Z,13.45
2023-05-24T09:35:09.637Z,10.50
2023-05-24T09:37:39.067Z,11.30
2023-05-24T09:40:08.072Z,11.82
2023-05-24T09:42:34.986Z,16.98
2023-05-24T09:45:33.551Z,13.60
2023-05-24T09:48:01.130Z,10.85
2023-05-24T09:50:28.264Z,11.75
2023-05-24T09:52:56.748Z,10.35
2023-05-24T09:55:24.066Z,10.65
2023-05-24T09:57:53.617Z,12.85
2023-05-24T10:00:24.352Z,12.73
2023-05-24T10:03:03.183Z,10.77
2023-05-24T10:05:36.579Z,13.07
2023-05-24T10:08:06.705Z,15.63
2023-05-24T10:10:34.243Z,11.57
2023-05-24T10:13:02.658Z,11.82
2023-05-24T10:15:30.856Z,10.35
2023-05-24T10:17:59.701Z,12.52
2023-05-24T10:20:26.974Z,15.10
2023-05-24T10:23:02.099Z,12.57
2023-05-24T10:25:30.048Z,14.18
2023-05-24T10:28:12.001Z,10.23
2023-05-24T10:31:07.461Z,10.85
2023-05-24T10:33:37.993Z,10.50
2023-05-24T10:36:09.595Z,13.43
2023-05-24T10:38:44.001Z,14.40
2023-05-24T10:41:13.214Z,14.65
2023-05-24T10:43:40.886Z,14.93
2023-05-24T10:46:10.065Z,12.02
2023-05-24T10:48:45.747Z,14.73
2023-05-24T10:51:34.861Z,12.13
2023-05-24T10:54:25.121Z,13.23
2023-05-24T10:56:53.201Z,17.70
2023-05-24T10:59:30.823Z,27.90
2023-05-24T11:02:01.959Z,13.38
2023-05-24T11:04:41.061Z,21.52
2023-05-24T11:07:11.835Z,46.45
2023-05-24T11:09:46.444Z,24.63
2023-05-24T11:12:18.183Z,59.03
2023-05-24T11:14:53.087Z,33.58
2023-05-24T11:17:22.866Z,16.45
2023-05-24T11:19:53.573Z,14.82
2023-05-24T11:22:23.587Z,8.73
2023-05-24T11:24:52.432Z,10.18
2023-05-24T11:27:19.472Z,9.07
2023-05-24T11:29:50.926Z,10.80
2023-05-24T11:32:19.888Z,21.45
2023-05-24T11:34:51.276Z,16.02
2023-05-24T11:37:18.983Z,11.38
2023-05-24T11:39:52.929Z,15.25
2023-05-24T11:42:22.741Z,17.45
2023-05-24T11:44:50.638Z,18.02
2023-05-24T11:47:20.944Z,27.05
2023-05-24T11:49:52.065Z,18.75
2023-05-24T11:54:46.263Z,12.30
2023-05-24T11:57:14.169Z,15.93
2023-05-24T11:59:41.829Z,15.30
2023-05-24T12:02:21.157Z,14.98
2023-05-24T12:04:50.644Z,8.68
2023-05-24T12:07:18.111Z,20.77
2023-05-24T12:09:45.284Z,18.23
2023-05-24T12:12:12.322Z,30.85
2023-05-24T12:14:39.759Z,18.08
2023-05-24T12:17:14.624Z,7.70
2023-05-24T12:19:43.896Z,10.40
2023-05-24T12:22:10.865Z,7.03
2023-05-24T12:24:38.444Z,6.30
2023-05-24T12:27:07.824Z,9.25
2023-05-24T12:29:35.839Z,7.45
2023-05-24T12:32:03.621Z,5.70
2023-05-24T12:34:30.634Z,6.40
2023-05-24T12:36:58.022Z,55.38
2023-05-24T12:39:45.992Z,19.23
2023-05-24T12:42:13.783Z,12.02
2023-05-24T12:44:42.059Z,12.23
2023-05-24T12:47:09.620Z,7.03
2023-05-24T12:49:51.287Z,9.45
2023-05-24T12:52:18.369Z,10.07
2023-05-24T12:54:45.380Z,8.38
2023-05-24T12:57:12.362Z,11.43
2023-05-24T12:59:39.672Z,9.20
2023-05-24T13:02:06.931Z,8.90
2023-05-24T13:04:36.106Z,6.18
2023-05-24T13:07:05.924Z,10.30
2023-05-24T13:09:34.401Z,12.82
2023-05-24T13:12:16.772Z,9.07
2023-05-24T13:14:45.086Z,12.45
2023-05-24T13:17:12.257Z,8.63
2023-05-24T13:19:39.337Z,18.08
2023-05-24T13:22:06.535Z,12.85
2023-05-24T13:24:33.731Z,13.18
2023-05-24T13:27:01.045Z,11.63
2023-05-24T13:29:39.387Z,16.25
2023-05-24T13:32:07.065Z,12.27
2023-05-24T13:34:35.537Z,20.08
2023-05-24T13:37:10.222Z,11.63
2023-05-24T13:39:38.843Z,13.70
2023-05-24T13:42:06.705Z,10.88
2023-05-24T13:44:33.671Z,9.45
2023-05-24T13:47:00.798Z,10.77
2023-05-24T13:49:30.328Z,14.80
2023-05-24T13:51:58.662Z,13.48
2023-05-24T13:54:26.547Z,15.25
2023-05-24T13:56:57.210Z,10.15
2023-05-24T13:59:24.859Z,13.00
2023-05-24T14:01:51.829Z,10.73
2023-05-24T14:04:18.779Z,8.50
2023-05-24T14:06:46.036Z,9.30
2023-05-24T14:09:15.360Z,9.32
2023-05-24T14:11:42.494Z,8.75
2023-05-24T14:16:43.140Z,9.90
2023-05-24T14:19:12.951Z,9.65
2023-05-24T14:21:41.608Z,8.38
2023-05-24T14:24:09.914Z,12.50
2023-05-24T14:26:37.090Z,11.80
2023-05-24T14:29:03.980Z,12.00
2023-05-24T14:31:34.260Z,7.78
2023-05-24T14:34:06.995Z,13.70
2023-05-24T14:36:34.736Z,9.32
2023-05-24T14:39:01.871Z,8.23
2023-05-24T14:41:29.046Z,10.52
2023-05-24T14:43:56.014Z,11.60
2023-05-24T14:46:23.204Z,7.97
2023-05-24T14:48:51.132Z,6.95
2023-05-24T14:51:19.261Z,14.25
2023-05-24T14:53:46.214Z,8.60
2023-05-24T14:56:14.857Z,11.93
2023-05-24T14:58:45.369Z,8.63
2023-05-24T15:01:12.484Z,7.10
2023-05-24T15:03:41.281Z,7.22
2023-05-24T15:06:08.438Z,13.52
2023-05-24T15:08:35.949Z,8.27
2023-05-24T15:11:02.961Z,10.25
2023-05-24T15:13:30.031Z,9.35
2023-05-24T15:16:00.377Z,6.95
2023-05-24T15:18:30.204Z,14.47
2023-05-24T15:20:57.529Z,11.00
2023-05-24T15:23:25.150Z,11.02
2023-05-24T15:25:52.334Z,8.43
2023-05-24T15:28:20.011Z,7.78
2023-05-24T15:30:47.520Z,13.98
2023-05-24T15:33:17.182Z,10.70
2023-05-24T15:35:45.253Z,10.05
2023-05-24T15:38:12.390Z,12.95
2023-05-24T15:40:42.270Z,9.45
2023-05-24T15:43:09.429Z,7.82
2023-05-24T15:45:36.538Z,8.70
2023-05-24T15:48:07.019Z,10.80
2023-05-24T15:50:54.011Z,7.78
2023-05-24T15:53:21.767Z,7.20
2023-05-24T15:55:50.219Z,6.65
2023-05-24T15:58:17.475Z,7.85
2023-05-24T16:01:10.001Z,8.95
2023-05-24T16:03:38.455Z,11.18
2023-05-24T16:06:06.623Z,6.45
2023-05-24T16:08:34.337Z,7.57
2023-05-24T16:11:03.734Z,10.57
2023-05-24T16:13:32.853Z,8.70
2023-05-24T16:16:00.467Z,8.70
2023-05-24T16:18:36.445Z,9.93
2023-05-24T16:21:04.730Z,9.48
2023-05-24T16:23:34.313Z,8.52
2023-05-24T16:26:12.240Z,6.70
2023-05-24T16:28:42.528Z,5.38
2023-05-24T16:31:10.302Z,11.90
2023-05-24T16:36:32.853Z,7.40
2023-05-24T16:39:01.667Z,13.38
2023-05-24T16:41:35.570Z,8.15
2023-05-24T16:44:09.970Z,8.48
2023-05-24T16:46:42.144Z,4.82
2023-05-24T16:49:10.971Z,8.93
2023-05-24T16:51:38.298Z,8.35
2023-05-24T16:54:13.248Z,8.00
2023-05-24T16:56:44.984Z,9.50
2023-05-24T16:59:12.628Z,7.78
2023-05-24T17:01:40.139Z,4.90
2023-05-24T17:04:08.450Z,7.32
2023-05-24T17:06:44.159Z,6.53
2023-05-24T17:09:11.224Z,6.20
2023-05-24T17:11:39.866Z,12.10
2023-05-24T17:14:07.003Z,8.82
2023-05-24T17:16:34.309Z,7.18
2023-05-24T17:19:01.483Z,7.53
2023-05-24T17:21:30.091Z,8.52
2023-05-24T17:23:58.668Z,9.00
2023-05-24T17:26:27.633Z,7.20
2023-05-24T17:28:59.231Z,7.55
2023-05-24T17:31:26.513Z,9.77
2023-05-24T17:33:53.409Z,8.15
2023-05-24T17:36:22.469Z,7.50
2023-05-24T17:38:49.294Z,6.75
2023-05-24T17:41:18.286Z,13.65
2023-05-24T17:43:45.746Z,12.50
2023-05-24T17:46:13.712Z,7.40
2023-05-24T17:48:43.549Z,12.13
2023-05-24T17:51:11.192Z,9.13
2023-05-24T17:53:39.050Z,9.48
2023-05-24T17:56:08.436Z,7.45
2023-05-24T17:58:39.306Z,12.85
2023-05-24T18:01:07.574Z,9.38
2023-05-24T18:03:39.367Z,7.38
2023-05-24T18:06:07.247Z,10.55
2023-05-24T18:08:44.539Z,8.18
2023-05-24T18:11:14.575Z,13.02
2023-05-24T18:13:43.114Z,10.73
2023-05-24T18:16:11.134Z,10.85
2023-05-24T18:18:38.693Z,12.27
2023-05-24T18:21:09.794Z,14.40
2023-05-24T18:23:40.378Z,9.38
2023-05-24T18:26:09.478Z,9.27
2023-05-24T18:28:37.899Z,23.00
2023-05-24T18:31:10.496Z,13.00
2023-05-24T18:33:38.534Z,11.25
2023-05-24T18:36:06.479Z,14.85
2023-05-24T18:38:34.502Z,12.05
2023-05-24T18:41:05.714Z,14.52
2023-05-24T18:43:33.412Z,12.32
2023-05-24T18:46:00.482Z,15.18
2023-05-24T18:48:27.699Z,12.82
2023-05-24T18:50:56.057Z,13.63
2023-05-24T18:53:23.098Z,13.82
2023-05-24T18:55:53.609Z,14.05
2023-05-24T18:58:20.570Z,21.03
2023-05-24T19:00:51.002Z,17.15
2023-05-24T19:03:22.204Z,10.90
2023-05-24T19:08:17.042Z,10.55
2023-05-24T19:10:44.176Z,13.43
2023-05-24T19:13:13.825Z,14.93
2023-05-24T19:15:43.609Z,10.40
2023-05-24T19:18:10.669Z,16.77
2023-05-24T19:20:37.877Z,13.23
2023-05-24T19:23:04.880Z,14.55
2023-05-24T19:25:31.849Z,16.85
2023-05-24T19:28:00.492Z,17.05
2023-05-24T19:30:28.005Z,20.10
2023-05-24T19:32:55.087Z,12.18
2023-05-24T19:35:22.230Z,11.10
2023-05-24T19:37:53.951Z,14.52
2023-05-24T19:40:21.368Z,19.48
2023-05-24T19:42:48.289Z,15.05
2023-05-24T19:45:15.355Z,14.68
2023-05-24T19:47:44.744Z,17.20
2023-05-24T19:50:14.634Z,21.00
2023-05-24T19:52:42.205Z,14.73
2023-05-24T19:55:09.698Z,15.85
2023-05-24T19:57:36.861Z,12.98
2023-05-24T20:00:07.173Z,16.00
2023-05-24T20:02:36.433Z,16.83
2023-05-24T20:05:04.001Z,19.50
2023-05-24T20:07:31.684Z,16.52
2023-05-24T20:09:58.635Z,15.88
2023-05-24T20:12:26.027Z,16.27
2023-05-24T20:14:52.990Z,12.82
2023-05-24T20:17:19.896Z,14.88
2023-05-24T20:19:46.860Z,27.45
2023-05-24T20:22:16.530Z,17.65
2023-05-24T20:24:43.382Z,14.57
2023-05-24T20:27:10.357Z,19.92
2023-05-24T20:29:37.212Z,17.63
2023-05-24T20:32:04.376Z,20.85
2023-05-24T20:34:31.958Z,15.00
2023-05-24T20:36:58.976Z,13.88
2023-05-24T20:39:25.822Z,20.42
2023-05-24T20:41:52.779Z,14.38
2023-05-24T20:44:19.808Z,15.70
2023-05-24T20:46:46.815Z,19.30
2023-05-24T20:49:13.726Z,20.60
2023-05-24T20:51:40.560Z,15.07
2023-05-24T20:54:07.508Z,18.73
2023-05-24T20:56:34.497Z,19.33
2023-05-24T20:59:02.427Z,19.65
2023-05-24T21:01:29.496Z,15.82
2023-05-24T21:03:56.773Z,14.32
2023-05-24T21:06:23.983Z,13.93
2023-05-24T21:08:51.051Z,12.73
2023-05-24T21:11:17.917Z,19.08
2023-05-24T21:13:44.803Z,15.82
2023-05-24T21:16:11.727Z,15.68
2023-05-24T21:18:40.213Z,15.20
2023-05-24T21:21:07.418Z,18.08
2023-05-24T21:23:34.432Z,17.73
2023-05-24T21:26:02.425Z,12.38
2023-05-24T21:28:29.398Z,15.10
2023-05-24T21:30:56.343Z,20.85
2023-05-24T21:33:24.558Z,17.90
2023-05-24T21:35:51.898Z,13.90
2023-05-24T21:38:18.729Z,13.60
2023-05-24T21:40:45.641Z,19.95
2023-05-24T21:43:12.593Z,17.55
2023-05-24T21:45:39.985Z,9.60
2023-05-24T21:48:07.875Z,16.75
2023-05-24T21:50:35.736Z,18.45
2023-05-24T21:53:03.173Z,25.65
2023-05-24T21:55:30.078Z,17.15
2023-05-24T21:57:57.074Z,11.13
2023-05-24T22:00:28.301Z,12.02
2023-05-24T22:02:55.499Z,18.75
2023-05-24T22:05:22.636Z,13.05
2023-05-24T22:07:49.554Z,11.20
2023-05-24T22:10:16.793Z,20.20
2023-05-24T22:12:43.927Z,12.48
2023-05-24T22:15:10.974Z,15.75
2023-05-24T22:17:41.162Z,14.75
2023-05-24T22:20:09.578Z,12.57
2023-05-24T22:22:40.128Z,12.88
2023-05-24T22:25:08.868Z,15.07
2023-05-24T22:27:36.050Z,11.25
2023-05-24T22:30:03.054Z,13.10
2023-05-24T22:32:30.347Z,12.73
2023-05-24T22:34:57.477Z,13.18
2023-05-24T22:37:24.400Z,14.20
2023-05-24T22:39:51.365Z,11.70
2023-05-24T22:42:18.949Z,9.77
2023-05-24T22:44:46.650Z,12.57
2023-05-24T22:47:14.293Z,11.23
2023-05-24T22:49:41.540Z,12.52
2023-05-24T22:52:09.095Z,17.63
2023-05-24T22:54:36.343Z,14.38
2023-05-24T22:57:03.348Z,12.32
2023-05-24T22:59:32.521Z,11.55
2023-05-24T23:01:59.689Z,10.30
2023-05-24T23:04:34.966Z,12.10
2023-05-24T23:07:01.959Z,14.13
2023-05-24T23:09:34.277Z,15.50
2023-05-24T23:12:08.481Z,10.65
2023-05-24T23:14:39.754Z,13.07
2023-05-24T23:17:13.461Z,10.73
2023-05-24T23:19:44.612Z,11.48
2023-05-24T23:22:13.290Z,8.88
2023-05-24T23:24:42.687Z,15.45
2023-05-24T23:27:10.089Z,12.25
2023-05-24T23:29:40.278Z,12.00
2023-05-24T23:32:08.446Z,11.73
2023-05-24T23:34:36.318Z,12.68
2023-05-24T23:37:07.386Z,9.38
2023-05-24T23:39:34.770Z,13.00
2023-05-24T23:42:02.699Z,9.98
2023-05-24T23:44:29.733Z,11.98
2023-05-24T23:46:57.014Z,11.65
2023-05-24T23:49:24.612Z,11.88
2023-05-24T23:51:51.585Z,14.10
2023-05-24T23:54:21.364Z,14.02
2023-05-24T23:56:48.629Z,10.40
2023-05-24T23:59:17.119Z,11.85
